Rapid City, SD

11:37 PM MST on February 13, 2016 (GMT -0700)
Radar Hills | | Change Station
CLOSE
Current Station
Personal Weather Station
Location: Box Elder, SD
Elevation: 3152 ft
Nearby Weather Stations

Elev 3152 ft 44.10 °N, 103.09 °W | Updated 1 minute ago

Clear
Clear
40.5 °F
Feels Like 32 °F
N
15.0
Wind Variable Wind from WNW
Gusts 19.0 mph

Today
High -- | Low -- °F
--% Chance of Precip.
Yesterday
High -- | Low -- °F
Precip. -- in
Pressure 29.91 in
Visibility 10.0 miles
Clouds Clear
Windchill 32 °F
Dew Point 30 °F
Humidity 66%
Rainfall 0.20 in
Snow Depth Not available.
6:54 AM 5:18 PM
Waxing Crescent, 38% visible
METAR KRCA 140558Z AUTO 31023G29KT 10SM CLR 04/M01 A2985 RMK AO2 PK WND 31032/54 SLP129 P0001 60027 T00391009 10043 20007 50008 $
Pressure 29.91 in
Visibility 10.0 miles
Clouds Clear
Windchill 32 °F
Dew Point 30 °F
Humidity 66%
Rainfall 0.20 in
Snow Depth Not available.
6:54 AM 5:18 PM
Waxing Crescent, 38% visible
METAR KRCA 140558Z AUTO 31023G29KT 10SM CLR 04/M01 A2985 RMK AO2 PK WND 31032/54 SLP129 P0001 60027 T00391009 10043 20007 50008 $

10-Day Weather Forecast

Almanac

Astronomy

Feb. 13, 2016 Rise Set
Actual Time
Civil Twilight
Nautical Twilight
Astronomical Twilight
Moon
Length of Visible Light
Length of Day
Tomorrow will be .
, % of the Moon is Illuminated

Today's Extremes

State Highs State Lows

Community

WunderPhotos

Upload Photos

1,892,757 photos uploaded!

WunderBlog® & News

Nearby

Air Quality

  Air Quality AQ Index Pollutant
Not available.

Snow Depth

Station Depth Elevation

Earthquake Activity

City Distance Mag. Time & Date
Minimum magnitude displayed is 2.5.

Coastal Water Temperatures

Place Temperature

Stations

Nearby Weather Stations

Station Location Temp. Windchill Dew Point Humidity Wind Precip. Elev Updated Type
                   

Watches & Warnings

There are currently no watches in effect.